Time;durP1;ratioP1;P1;durP2;ratioP2;P2;SDS_P1;SDS_P2;PMS_P1;PMS_P2;Temp;Humidity;BMP_temperature;BMP_pressure;BME280_temperature;BME280_humidity;BME280_pressure;Samples;Min_cycle;Max_cycle;Signal;HPM_P1;HPM_P2
2023/07/19 00:01:50;;;;;;;10.25;5.97;;;;;;;;;;5062860;28;20044;-60
2023/07/19 00:04:16;;;;;;;10.32;6.35;;;;;;;;;;5061674;28;20445;-63
2023/07/19 00:06:43;;;;;;;10.68;6.28;;;;;;;;;;5035414;28;20042;-65
2023/07/19 00:09:10;;;;;;;10.18;6.32;;;;;;;;;;5062441;28;20044;-62
2023/07/19 00:11:36;;;;;;;11.10;6.53;;;;;;;;;;5062441;28;20036;-63
2023/07/19 00:14:05;;;;;;;9.57;6.20;;;;;;;;;;5071879;28;20060;-62
2023/07/19 00:16:33;;;;;;;10.88;6.35;;;;;;;;;;5068331;28;20143;-63
2023/07/19 00:18:59;;;;;;;10.52;5.85;;;;;;;;;;5032697;28;20040;-63
2023/07/19 00:21:26;;;;;;;10.57;6.57;;;;;;;;;;5059759;28;20115;-63
2023/07/19 00:23:53;;;;;;;10.82;5.93;;;;;;;;;;5060691;28;20499;-62
2023/07/19 00:26:19;;;;;;;11.93;6.53;;;;;;;;;;5060254;28;20075;-63
2023/07/19 00:28:46;;;;;;;11.68;6.13;;;;;;;;;;4990985;28;20762;-62
2023/07/19 00:31:13;;;;;;;10.15;6.20;;;;;;;;;;4991245;28;20223;-61
2023/07/19 00:33:39;;;;;;;17.23;7.25;;;;;;;;;;4990755;28;20045;-62
2023/07/19 00:36:06;;;;;;;10.55;6.15;;;;;;;;;;4991397;28;20073;-63
2023/07/19 00:38:32;;;;;;;9.52;6.00;;;;;;;;;;4990511;28;20065;-62
2023/07/19 00:40:59;;;;;;;11.15;5.53;;;;;;;;;;4990714;28;20519;-64
2023/07/19 00:43:26;;;;;;;9.63;6.20;;;;;;;;;;4991310;28;20054;-62
2023/07/19 00:45:56;;;;;;;9.57;6.00;;;;;;;;;;4989897;28;20054;-62
2023/07/19 00:48:23;;;;;;;10.15;6.40;;;;;;;;;;4991824;28;20045;-65
2023/07/19 00:50:51;;;;;;;11.00;6.40;;;;;;;;;;4991773;28;20069;-63
2023/07/19 00:53:18;;;;;;;10.93;5.97;;;;;;;;;;4992230;28;20061;-63
2023/07/19 00:55:48;;;;;;;10.48;6.60;;;;;;;;;;4989202;28;20042;-62
2023/07/19 00:58:15;;;;;;;11.55;6.35;;;;;;;;;;4990422;28;20049;-62
2023/07/19 01:00:42;;;;;;;9.50;6.35;;;;;;;;;;4989522;28;20038;-62
2023/07/19 01:03:08;;;;;;;10.10;6.35;;;;;;;;;;4987998;28;20904;-60
2023/07/19 01:05:35;;;;;;;10.18;6.43;;;;;;;;;;4999845;28;20517;-63
2023/07/19 01:08:02;;;;;;;12.48;7.07;;;;;;;;;;5024120;28;20037;-63
2023/07/19 01:10:28;;;;;;;10.05;6.32;;;;;;;;;;5049702;28;20041;-64
2023/07/19 01:13:04;;;;;;;10.00;6.30;;;;;;;;;;5042933;28;20076;-63
2023/07/19 01:15:31;;;;;;;10.18;6.68;;;;;;;;;;5039379;28;20040;-63
2023/07/19 01:17:57;;;;;;;10.93;6.40;;;;;;;;;;5038897;28;20056;-63
2023/07/19 01:20:24;;;;;;;11.93;6.93;;;;;;;;;;5039135;28;20502;-63
2023/07/19 01:22:51;;;;;;;13.77;6.65;;;;;;;;;;5038741;28;20618;-63
2023/07/19 01:25:17;;;;;;;10.90;6.32;;;;;;;;;;5037654;28;20051;-65
2023/07/19 01:27:44;;;;;;;10.10;6.43;;;;;;;;;;5038475;28;20152;-61
2023/07/19 01:30:14;;;;;;;11.15;6.45;;;;;;;;;;5041475;28;20039;-60
2023/07/19 01:32:40;;;;;;;11.95;7.05;;;;;;;;;;5041134;28;20409;-60
2023/07/19 01:35:07;;;;;;;10.18;6.40;;;;;;;;;;5043225;28;20040;-62
2023/07/19 01:37:34;;;;;;;12.05;6.85;;;;;;;;;;5029336;28;20326;-61
2023/07/19 01:40:01;;;;;;;11.68;7.35;;;;;;;;;;5037257;28;20053;-62
2023/07/19 01:42:28;;;;;;;11.48;6.97;;;;;;;;;;5040760;28;20038;-63
2023/07/19 01:44:55;;;;;;;11.38;6.90;;;;;;;;;;5039098;28;20051;-63
2023/07/19 01:47:21;;;;;;;11.13;6.90;;;;;;;;;;5032874;28;20041;-64
2023/07/19 01:49:48;;;;;;;12.77;7.43;;;;;;;;;;5041953;28;20499;-63
2023/07/19 01:52:16;;;;;;;11.07;7.07;;;;;;;;;;5039986;28;20114;-63
2023/07/19 01:54:42;;;;;;;11.25;6.65;;;;;;;;;;5047064;28;20064;-64
2023/07/19 01:57:09;;;;;;;12.07;7.50;;;;;;;;;;5041552;28;20033;-62
2023/07/19 01:59:35;;;;;;;14.05;7.95;;;;;;;;;;5039669;28;20106;-61
2023/07/19 02:02:02;;;;;;;11.10;7.22;;;;;;;;;;5047980;28;20036;-62
2023/07/19 02:04:29;;;;;;;19.58;8.50;;;;;;;;;;5058899;28;20578;-63
2023/07/19 02:06:56;;;;;;;12.65;7.82;;;;;;;;;;5062267;28;20048;-66
2023/07/19 02:09:23;;;;;;;13.40;8.10;;;;;;;;;;5063030;28;20671;-62
2023/07/19 02:11:50;;;;;;;14.70;8.75;;;;;;;;;;5038235;28;20056;-61
2023/07/19 02:14:16;;;;;;;14.25;8.60;;;;;;;;;;5037496;28;20920;-62
2023/07/19 02:16:43;;;;;;;17.90;9.32;;;;;;;;;;5062432;28;20045;-64
2023/07/19 02:19:10;;;;;;;15.77;8.95;;;;;;;;;;5061394;28;20036;-64
2023/07/19 02:21:37;;;;;;;16.27;9.52;;;;;;;;;;5061322;28;20056;-66
2023/07/19 02:24:03;;;;;;;14.93;9.32;;;;;;;;;;5061092;28;20036;-62
2023/07/19 02:26:30;;;;;;;17.17;9.93;;;;;;;;;;5060627;28;20057;-62
2023/07/19 02:28:57;;;;;;;18.63;10.35;;;;;;;;;;5047787;28;20040;-61
2023/07/19 02:31:24;;;;;;;16.50;9.93;;;;;;;;;;5062634;28;20882;-62
2023/07/19 02:33:51;;;;;;;15.85;9.93;;;;;;;;;;5064073;28;20081;-65
2023/07/19 02:36:18;;;;;;;15.52;10.10;;;;;;;;;;5042285;28;20036;-64
2023/07/19 02:38:45;;;;;;;17.02;10.10;;;;;;;;;;5060718;28;20040;-63
2023/07/19 02:41:13;;;;;;;17.67;9.77;;;;;;;;;;5064584;28;20061;-62
2023/07/19 02:43:39;;;;;;;17.63;10.43;;;;;;;;;;5062840;28;20055;-63
2023/07/19 02:46:06;;;;;;;17.15;10.15;;;;;;;;;;5061260;28;20044;-64
2023/07/19 02:48:32;;;;;;;19.77;10.82;;;;;;;;;;5048542;28;20040;-63
2023/07/19 02:50:59;;;;;;;19.90;10.82;;;;;;;;;;5063033;28;20044;-61
2023/07/19 02:53:26;;;;;;;16.40;9.57;;;;;;;;;;5062569;28;20970;-63
2023/07/19 02:55:53;;;;;;;18.98;10.48;;;;;;;;;;5044941;28;20688;-63
2023/07/19 02:58:19;;;;;;;19.58;10.55;;;;;;;;;;5063195;28;20489;-61
2023/07/19 03:00:46;;;;;;;16.63;10.38;;;;;;;;;;5061974;28;20059;-61
2023/07/19 03:03:13;;;;;;;18.33;10.20;;;;;;;;;;5063824;28;20044;-62
2023/07/19 03:05:44;;;;;;;18.95;10.75;;;;;;;;;;5062958;28;20059;-63
2023/07/19 03:08:11;;;;;;;18.50;10.13;;;;;;;;;;5065175;28;20063;-61
2023/07/19 03:10:38;;;;;;;18.10;10.93;;;;;;;;;;5064950;28;20043;-59
2023/07/19 03:13:05;;;;;;;16.73;9.77;;;;;;;;;;5035156;28;20045;-62
2023/07/19 03:15:33;;;;;;;19.20;11.00;;;;;;;;;;5035753;28;20060;-60
2023/07/19 03:18:00;;;;;;;19.13;10.25;;;;;;;;;;5062548;28;20131;-60
2023/07/19 03:20:27;;;;;;;16.48;9.75;;;;;;;;;;5071903;28;20092;-61
2023/07/19 03:22:55;;;;;;;19.55;10.43;;;;;;;;;;5074805;28;21233;-61
2023/07/19 03:25:23;;;;;;;19.35;10.25;;;;;;;;;;5044104;28;20427;-60
2023/07/19 03:27:50;;;;;;;16.95;10.32;;;;;;;;;;5074221;28;20040;-62
2023/07/19 03:30:17;;;;;;;18.73;10.88;;;;;;;;;;5076419;28;20040;-63
2023/07/19 03:32:44;;;;;;;20.33;10.63;;;;;;;;;;5068258;28;20040;-63
2023/07/19 03:35:10;;;;;;;17.83;10.52;;;;;;;;;;5071277;28;20506;-63
2023/07/19 03:37:37;;;;;;;17.80;10.75;;;;;;;;;;5069785;28;20036;-60
2023/07/19 03:40:04;;;;;;;21.60;10.25;;;;;;;;;;5069516;28;20047;-60
2023/07/19 03:42:31;;;;;;;18.67;10.35;;;;;;;;;;5065980;28;20045;-61
2023/07/19 03:44:57;;;;;;;18.13;10.88;;;;;;;;;;5060261;28;20041;-61
2023/07/19 03:47:25;;;;;;;18.85;10.25;;;;;;;;;;5061007;28;20032;-63
2023/07/19 03:49:51;;;;;;;18.77;10.68;;;;;;;;;;5045355;28;20032;-60
2023/07/19 03:52:18;;;;;;;20.63;11.20;;;;;;;;;;5036648;28;20036;-61
2023/07/19 03:54:44;;;;;;;17.20;10.32;;;;;;;;;;5058984;28;20044;-63
2023/07/19 03:57:11;;;;;;;22.38;11.93;;;;;;;;;;5061285;28;20040;-58
2023/07/19 03:59:38;;;;;;;21.42;11.73;;;;;;;;;;5059409;28;20081;-60
2023/07/19 04:02:04;;;;;;;20.10;10.57;;;;;;;;;;5059796;28;20125;-62
2023/07/19 04:04:31;;;;;;;20.63;11.18;;;;;;;;;;5044234;28;20040;-60
2023/07/19 04:06:58;;;;;;;17.58;10.27;;;;;;;;;;5063148;28;20048;-59
2023/07/19 04:09:24;;;;;;;20.20;10.60;;;;;;;;;;5059734;28;20033;-62
2023/07/19 04:11:51;;;;;;;20.00;10.98;;;;;;;;;;5062214;28;20020;-61
2023/07/19 04:14:18;;;;;;;15.90;9.70;;;;;;;;;;5059214;28;20040;-63
2023/07/19 04:16:45;;;;;;;16.70;10.77;;;;;;;;;;5067457;28;20119;-58
2023/07/19 04:19:12;;;;;;;17.20;10.85;;;;;;;;;;5070721;28;20135;-58
2023/07/19 04:21:38;;;;;;;18.75;10.60;;;;;;;;;;5069997;28;20040;-59
2023/07/19 04:24:06;;;;;;;16.65;10.00;;;;;;;;;;5071356;28;20121;-60
2023/07/19 04:26:33;;;;;;;19.48;9.60;;;;;;;;;;5073353;28;20071;-62
2023/07/19 04:28:59;;;;;;;22.48;10.18;;;;;;;;;;5066924;28;20049;-62
2023/07/19 04:31:26;;;;;;;15.48;9.02;;;;;;;;;;5032811;28;20434;-59
2023/07/19 04:33:53;;;;;;;16.33;9.32;;;;;;;;;;5044357;28;21053;-62
2023/07/19 04:36:19;;;;;;;14.27;8.35;;;;;;;;;;5060941;28;20036;-60
2023/07/19 04:38:46;;;;;;;17.00;8.45;;;;;;;;;;5036286;28;20041;-60
2023/07/19 04:41:13;;;;;;;12.15;7.70;;;;;;;;;;5064678;28;20129;-61
2023/07/19 04:43:39;;;;;;;14.70;7.75;;;;;;;;;;5063596;28;20044;-64
2023/07/19 04:46:06;;;;;;;12.35;8.02;;;;;;;;;;5064700;28;20036;-59
2023/07/19 04:48:32;;;;;;;15.48;7.88;;;;;;;;;;5064546;28;20052;-62
2023/07/19 04:51:00;;;;;;;14.02;7.38;;;;;;;;;;5039085;28;20040;-63
2023/07/19 04:53:26;;;;;;;12.77;7.05;;;;;;;;;;5063046;28;21870;-60
2023/07/19 04:55:53;;;;;;;12.05;6.65;;;;;;;;;;5036843;28;20130;-62
2023/07/19 04:58:20;;;;;;;12.65;6.65;;;;;;;;;;5049326;28;20060;-60
2023/07/19 05:00:47;;;;;;;14.25;6.07;;;;;;;;;;5063426;28;20067;-60
2023/07/19 05:03:13;;;;;;;13.95;6.75;;;;;;;;;;5037604;28;20131;-61
2023/07/19 05:05:40;;;;;;;13.35;7.10;;;;;;;;;;5060313;28;20048;-61
2023/07/19 05:08:07;;;;;;;11.48;6.63;;;;;;;;;;5061038;28;20044;-60
2023/07/19 05:10:37;;;;;;;12.55;6.65;;;;;;;;;;5046782;28;20068;-59
2023/07/19 05:13:04;;;;;;;9.90;6.00;;;;;;;;;;5062197;28;20047;-61
2023/07/19 05:15:32;;;;;;;13.60;6.20;;;;;;;;;;5059027;28;20496;-60
2023/07/19 05:18:00;;;;;;;9.20;5.55;;;;;;;;;;5064250;28;20100;-60
2023/07/19 05:20:27;;;;;;;9.02;5.50;;;;;;;;;;5060705;28;20489;-62
2023/07/19 05:22:54;;;;;;;8.35;4.85;;;;;;;;;;5062212;28;20044;-63
2023/07/19 05:25:21;;;;;;;8.57;5.18;;;;;;;;;;5043422;28;20926;-59
2023/07/19 05:27:47;;;;;;;8.68;5.00;;;;;;;;;;5061412;28;20155;-59
2023/07/19 05:30:15;;;;;;;9.02;5.05;;;;;;;;;;5064086;28;20170;-62
2023/07/19 05:32:41;;;;;;;9.55;5.03;;;;;;;;;;5058198;28;20112;-60
2023/07/19 05:35:08;;;;;;;8.88;4.97;;;;;;;;;;5062991;28;20931;-62
2023/07/19 05:37:34;;;;;;;18.23;5.55;;;;;;;;;;5062350;28;20761;-61
2023/07/19 05:40:03;;;;;;;8.73;4.95;;;;;;;;;;5062941;28;20048;-60
2023/07/19 05:42:29;;;;;;;9.85;5.35;;;;;;;;;;5035768;28;20052;-60
2023/07/19 05:44:57;;;;;;;9.43;4.70;;;;;;;;;;5061271;28;20048;-61
2023/07/19 05:47:24;;;;;;;8.05;4.57;;;;;;;;;;5035267;28;20443;-61
2023/07/19 05:49:51;;;;;;;7.68;4.57;;;;;;;;;;5042324;28;20128;-62
2023/07/19 05:52:17;;;;;;;10.23;4.65;;;;;;;;;;5056312;28;20487;-60
2023/07/19 05:54:45;;;;;;;8.40;5.05;;;;;;;;;;5056766;28;20047;-62
2023/07/19 05:57:12;;;;;;;11.32;5.40;;;;;;;;;;5059937;28;20059;-62
2023/07/19 05:59:38;;;;;;;9.85;5.95;;;;;;;;;;5050455;28;20468;-63
2023/07/19 06:02:05;;;;;;;10.30;5.53;;;;;;;;;;5058271;28;20498;-64
2023/07/19 06:04:32;;;;;;;9.15;4.80;;;;;;;;;;5060352;28;20085;-62
2023/07/19 06:06:59;;;;;;;8.75;4.55;;;;;;;;;;5037688;28;20037;-63
2023/07/19 06:09:25;;;;;;;8.77;4.50;;;;;;;;;;5060652;28;20101;-62
2023/07/19 06:11:56;;;;;;;7.63;4.10;;;;;;;;;;5065502;28;20045;-61
2023/07/19 06:14:23;;;;;;;7.97;4.63;;;;;;;;;;5035872;28;20509;-64
2023/07/19 06:16:50;;;;;;;11.45;4.38;;;;;;;;;;5062582;28;20102;-62
2023/07/19 06:19:19;;;;;;;9.07;4.97;;;;;;;;;;5063541;28;20036;-61
2023/07/19 06:21:46;;;;;;;8.02;4.53;;;;;;;;;;5062817;28;20032;-61
2023/07/19 06:24:13;;;;;;;8.57;4.40;;;;;;;;;;5062444;28;20037;-62
2023/07/19 06:26:39;;;;;;;8.07;4.63;;;;;;;;;;5033709;28;20505;-62
2023/07/19 06:29:07;;;;;;;10.93;5.00;;;;;;;;;;5061264;28;20043;-62
2023/07/19 06:31:33;;;;;;;15.30;5.05;;;;;;;;;;5063092;28;20043;-60
2023/07/19 06:34:00;;;;;;;8.70;4.72;;;;;;;;;;5063047;28;20128;-61
2023/07/19 06:36:27;;;;;;;10.57;5.05;;;;;;;;;;5063068;28;20054;-61
2023/07/19 06:38:54;;;;;;;10.27;5.40;;;;;;;;;;5064424;28;20433;-61
2023/07/19 06:41:20;;;;;;;11.60;5.45;;;;;;;;;;5062711;28;20074;-62
2023/07/19 06:43:47;;;;;;;9.63;5.70;;;;;;;;;;5061401;28;20037;-62
2023/07/19 06:46:14;;;;;;;11.13;5.53;;;;;;;;;;5063205;28;20051;-63
2023/07/19 06:48:41;;;;;;;13.65;6.20;;;;;;;;;;5064986;28;20461;-62
2023/07/19 06:51:07;;;;;;;11.52;6.07;;;;;;;;;;5062603;28;20119;-61
2023/07/19 06:53:34;;;;;;;12.07;6.20;;;;;;;;;;5061703;28;20048;-61
2023/07/19 06:56:01;;;;;;;15.40;6.53;;;;;;;;;;5049768;28;20532;-60
2023/07/19 06:58:28;;;;;;;13.13;6.45;;;;;;;;;;5061532;28;20053;-59
2023/07/19 07:00:55;;;;;;;12.65;6.50;;;;;;;;;;5065168;28;20158;-59
2023/07/19 07:03:22;;;;;;;12.90;7.07;;;;;;;;;;5037765;28;20115;-60
2023/07/19 07:05:50;;;;;;;10.90;6.50;;;;;;;;;;5060163;28;20063;-60
2023/07/19 07:08:16;;;;;;;16.00;7.00;;;;;;;;;;5046941;28;20528;-60
2023/07/19 07:10:43;;;;;;;13.07;7.20;;;;;;;;;;5061040;28;20044;-61
2023/07/19 07:13:10;;;;;;;12.52;6.43;;;;;;;;;;5065489;28;20032;-62
2023/07/19 07:15:37;;;;;;;14.48;7.03;;;;;;;;;;5059331;28;20558;-60
2023/07/19 07:18:04;;;;;;;12.95;7.10;;;;;;;;;;5061723;28;20309;-59
2023/07/19 07:20:30;;;;;;;13.90;6.85;;;;;;;;;;5036621;28;20128;-64
2023/07/19 07:22:57;;;;;;;12.65;7.15;;;;;;;;;;5054440;28;20131;-60
2023/07/19 07:25:23;;;;;;;11.35;7.20;;;;;;;;;;5061018;28;20372;-58
2023/07/19 07:27:50;;;;;;;14.18;7.50;;;;;;;;;;5061993;28;20079;-62
2023/07/19 07:30:17;;;;;;;12.63;7.30;;;;;;;;;;5035157;28;20037;-61
2023/07/19 07:32:44;;;;;;;13.18;6.95;;;;;;;;;;5058464;28;20059;-62
2023/07/19 07:35:11;;;;;;;16.83;7.07;;;;;;;;;;5062503;28;20044;-62
2023/07/19 07:37:39;;;;;;;13.38;7.65;;;;;;;;;;5066091;28;20047;-60
2023/07/19 07:40:06;;;;;;;11.20;6.88;;;;;;;;;;5063554;28;20047;-60
2023/07/19 07:42:32;;;;;;;13.57;7.05;;;;;;;;;;5062542;28;20055;-61
2023/07/19 07:44:59;;;;;;;12.63;6.80;;;;;;;;;;5060191;28;20075;-58
2023/07/19 07:47:26;;;;;;;13.30;7.30;;;;;;;;;;5044974;28;20079;-60
2023/07/19 07:49:54;;;;;;;14.55;6.72;;;;;;;;;;5061254;28;20516;-59
2023/07/19 07:52:21;;;;;;;12.38;6.13;;;;;;;;;;5062568;28;20056;-58
2023/07/19 07:54:47;;;;;;;11.65;6.28;;;;;;;;;;5058180;28;20044;-61
2023/07/19 07:57:14;;;;;;;11.93;6.00;;;;;;;;;;5061946;28;20052;-61
2023/07/19 07:59:41;;;;;;;12.50;6.40;;;;;;;;;;5061817;28;20052;-60
2023/07/19 08:02:08;;;;;;;11.50;6.35;;;;;;;;;;5061618;28;20033;-60
2023/07/19 08:04:36;;;;;;;10.95;5.93;;;;;;;;;;5061388;28;20048;-61
2023/07/19 08:07:02;;;;;;;11.70;5.85;;;;;;;;;;5060128;28;20079;-59
2023/07/19 08:09:29;;;;;;;11.13;6.30;;;;;;;;;;5051610;28;20041;-59
2023/07/19 08:11:56;;;;;;;10.65;5.70;;;;;;;;;;5060291;28;20040;-60
2023/07/19 08:14:22;;;;;;;11.05;6.18;;;;;;;;;;5034424;28;20527;-61
2023/07/19 08:17:09;;;;;;;12.80;6.22;;;;;;;;;;5060656;28;20044;-62
2023/07/19 08:19:35;;;;;;;12.48;6.40;;;;;;;;;;4992845;28;20037;-63
2023/07/19 08:22:05;;;;;;;12.38;6.13;;;;;;;;;;4996949;28;20057;-63
2023/07/19 08:24:32;;;;;;;12.07;6.20;;;;;;;;;;4996960;28;20038;-62
2023/07/19 08:26:59;;;;;;;10.13;5.95;;;;;;;;;;4995901;28;20065;-60
2023/07/19 08:29:27;;;;;;;11.95;6.55;;;;;;;;;;4995531;28;20069;-60
2023/07/19 08:31:54;;;;;;;12.10;6.78;;;;;;;;;;4998173;28;20033;-61
2023/07/19 08:34:21;;;;;;;12.23;5.82;;;;;;;;;;4994711;28;20080;-63
2023/07/19 08:36:47;;;;;;;11.13;6.07;;;;;;;;;;4981733;28;20316;-60
2023/07/19 08:39:14;;;;;;;11.00;6.47;;;;;;;;;;4998884;28;20068;-61
2023/07/19 08:41:41;;;;;;;12.85;6.43;;;;;;;;;;4997885;28;20068;-62
2023/07/19 08:44:07;;;;;;;10.48;5.57;;;;;;;;;;4991018;28;20145;-62
2023/07/19 08:46:34;;;;;;;13.07;6.55;;;;;;;;;;4996500;28;20037;-60
2023/07/19 08:49:02;;;;;;;12.48;7.03;;;;;;;;;;4993344;28;20603;-60
2023/07/19 08:51:29;;;;;;;10.43;6.28;;;;;;;;;;4994700;28;20037;-63
2023/07/19 08:54:15;;;;;;;13.10;6.60;;;;;;;;;;4993566;28;21121;-61
2023/07/19 08:56:43;;;;;;;12.15;6.95;;;;;;;;;;4984936;28;20062;-62
2023/07/19 08:59:10;;;;;;;11.25;7.07;;;;;;;;;;5033552;28;20049;-60
2023/07/19 09:01:37;;;;;;;12.77;6.68;;;;;;;;;;5033919;28;20113;-62
2023/07/19 09:04:09;;;;;;;12.73;7.15;;;;;;;;;;5031739;28;20045;-62
2023/07/19 09:06:36;;;;;;;9.60;5.82;;;;;;;;;;5035519;28;20522;-61
2023/07/19 09:09:03;;;;;;;10.82;6.75;;;;;;;;;;5025461;28;20041;-61
2023/07/19 09:11:29;;;;;;;12.10;6.75;;;;;;;;;;5031071;28;20163;-61
2023/07/19 09:13:57;;;;;;;21.52;7.82;;;;;;;;;;5032007;28;20044;-61
2023/07/19 09:16:27;;;;;;;12.00;6.63;;;;;;;;;;5027452;28;20583;-62
2023/07/19 09:18:55;;;;;;;11.48;6.63;;;;;;;;;;5032711;28;20497;-60
2023/07/19 09:21:37;;;;;;;11.23;6.35;;;;;;;;;;5011039;28;20040;-60
2023/07/19 09:24:04;;;;;;;13.20;6.32;;;;;;;;;;5030794;28;20041;-60
2023/07/19 09:26:55;;;;;;;12.35;6.40;;;;;;;;;;5032562;28;20175;-61
2023/07/19 09:29:22;;;;;;;13.10;7.22;;;;;;;;;;5034568;28;20045;-59
2023/07/19 09:31:58;;;;;;;13.40;6.82;;;;;;;;;;5045826;28;20052;-61
2023/07/19 09:34:38;;;;;;;11.05;6.63;;;;;;;;;;5058583;28;20129;-62
2023/07/19 09:37:05;;;;;;;13.75;6.75;;;;;;;;;;5060359;28;20040;-60
2023/07/19 09:39:34;;;;;;;15.43;7.00;;;;;;;;;;5058671;28;20052;-60
2023/07/19 09:42:01;;;;;;;11.80;6.70;;;;;;;;;;5061971;28;20113;-59
2023/07/19 09:44:28;;;;;;;12.35;7.00;;;;;;;;;;5042980;28;20173;-59
2023/07/19 09:46:54;;;;;;;13.90;6.90;;;;;;;;;;5064620;28;20115;-62
2023/07/19 09:49:21;;;;;;;15.07;7.25;;;;;;;;;;5064862;28;20064;-60
2023/07/19 09:51:49;;;;;;;13.73;6.68;;;;;;;;;;5062354;28;20073;-62
2023/07/19 09:54:16;;;;;;;13.23;7.15;;;;;;;;;;5033209;28;20956;-62
2023/07/19 09:56:44;;;;;;;14.18;7.07;;;;;;;;;;5057484;28;20044;-63
2023/07/19 09:59:14;;;;;;;14.25;7.32;;;;;;;;;;5060379;28;20472;-59
2023/07/19 10:01:43;;;;;;;15.00;7.53;;;;;;;;;;5044579;28;20098;-59
2023/07/19 10:04:23;;;;;;;13.02;7.18;;;;;;;;;;5033575;28;21658;-59
2023/07/19 10:06:51;;;;;;;14.40;7.43;;;;;;;;;;5061142;28;20052;-59
2023/07/19 10:09:24;;;;;;;13.05;7.07;;;;;;;;;;5060319;28;20142;-59
2023/07/19 10:11:50;;;;;;;14.15;7.28;;;;;;;;;;5061783;28;20047;-61
2023/07/19 10:14:27;;;;;;;13.65;7.22;;;;;;;;;;5061352;28;20601;-60
2023/07/19 10:16:57;;;;;;;13.45;7.28;;;;;;;;;;5059249;28;20047;-60
2023/07/19 10:19:24;;;;;;;13.35;7.15;;;;;;;;;;5060169;28;20039;-62
2023/07/19 10:22:06;;;;;;;12.77;7.15;;;;;;;;;;5059648;28;20045;-60
2023/07/19 10:24:35;;;;;;;12.67;6.97;;;;;;;;;;5057633;28;20040;-60
2023/07/19 10:27:02;;;;;;;15.18;7.63;;;;;;;;;;5061068;28;20067;-62
2023/07/19 10:29:39;;;;;;;15.05;6.75;;;;;;;;;;5059271;28;20117;-60
2023/07/19 10:32:06;;;;;;;14.93;7.65;;;;;;;;;;5059579;28;20048;-62
2023/07/19 10:34:33;;;;;;;14.00;7.22;;;;;;;;;;5041219;28;20216;-62
2023/07/19 10:37:19;;;;;;;13.18;7.40;;;;;;;;;;5021284;28;20076;-62
2023/07/19 10:39:46;;;;;;;14.25;7.13;;;;;;;;;;5017189;28;20454;-62
2023/07/19 10:42:13;;;;;;;16.55;7.65;;;;;;;;;;5022772;28;20037;-60
2023/07/19 10:44:39;;;;;;;18.70;8.25;;;;;;;;;;5020840;28;21923;-61
2023/07/19 10:47:06;;;;;;;15.90;7.57;;;;;;;;;;5020618;28;20037;-63
2023/07/19 10:49:32;;;;;;;14.07;7.72;;;;;;;;;;5016934;28;20122;-60
2023/07/19 10:51:59;;;;;;;15.07;8.07;;;;;;;;;;5024403;28;20464;-61
2023/07/19 10:54:28;;;;;;;15.55;7.72;;;;;;;;;;5022930;28;20625;-62
2023/07/19 10:56:57;;;;;;;15.70;7.93;;;;;;;;;;5024147;28;20609;-61
2023/07/19 10:59:23;;;;;;;11.93;7.40;;;;;;;;;;5022791;28;20040;-62
2023/07/19 11:01:50;;;;;;;13.60;7.72;;;;;;;;;;5025009;28;20072;-60
2023/07/19 11:04:19;;;;;;;14.75;8.25;;;;;;;;;;5006959;28;20033;-62
2023/07/19 11:06:56;;;;;;;12.35;7.22;;;;;;;;;;5022969;28;20049;-62
2023/07/19 11:09:23;;;;;;;16.38;7.50;;;;;;;;;;5024603;28;20049;-64
2023/07/19 11:11:50;;;;;;;13.02;7.53;;;;;;;;;;5025757;28;20045;-62
2023/07/19 11:14:36;;;;;;;16.00;7.88;;;;;;;;;;5033949;28;20161;-61
2023/07/19 11:17:03;;;;;;;15.02;8.25;;;;;;;;;;5063968;28;20090;-61
2023/07/19 11:19:36;;;;;;;14.02;7.82;;;;;;;;;;5068123;28;20056;-61
2023/07/19 11:22:03;;;;;;;15.27;8.63;;;;;;;;;;5068248;28;20044;-62
2023/07/19 11:24:37;;;;;;;15.13;8.30;;;;;;;;;;5068010;28;20044;-61
2023/07/19 11:27:24;;;;;;;16.30;8.68;;;;;;;;;;5066513;28;20111;-63
2023/07/19 11:29:52;;;;;;;16.27;8.40;;;;;;;;;;4994699;28;20038;-60
2023/07/19 11:32:20;;;;;;;18.10;8.68;;;;;;;;;;4984474;28;20042;-62
2023/07/19 11:34:47;;;;;;;14.50;8.50;;;;;;;;;;4991292;28;20034;-63
2023/07/19 11:37:17;;;;;;;22.52;9.13;;;;;;;;;;4993815;28;20172;-60
2023/07/19 11:39:44;;;;;;;20.17;9.82;;;;;;;;;;4988725;28;20564;-60
2023/07/19 11:42:10;;;;;;;21.17;9.85;;;;;;;;;;4989851;28;20034;-62
2023/07/19 11:44:46;;;;;;;18.73;9.98;;;;;;;;;;4987754;28;20039;-59
2023/07/19 11:47:12;;;;;;;19.27;10.20;;;;;;;;;;4988761;28;20086;-59
2023/07/19 11:49:39;;;;;;;20.75;9.95;;;;;;;;;;4991538;28;20526;-58
2023/07/19 11:52:06;;;;;;;20.48;10.68;;;;;;;;;;4995632;28;20053;-63
2023/07/19 11:54:33;;;;;;;18.25;10.15;;;;;;;;;;4988958;28;20044;-63
2023/07/19 11:56:59;;;;;;;17.52;9.88;;;;;;;;;;4989742;28;20039;-58
2023/07/19 11:59:26;;;;;;;18.83;10.25;;;;;;;;;;4988793;28;20070;-60
2023/07/19 12:01:54;;;;;;;18.15;10.75;;;;;;;;;;4989170;28;20042;-56
2023/07/19 12:04:21;;;;;;;22.92;10.77;;;;;;;;;;4991739;28;20038;-57
2023/07/19 12:06:48;;;;;;;23.20;10.82;;;;;;;;;;5018598;28;20415;-61
2023/07/19 12:09:14;;;;;;;19.38;10.77;;;;;;;;;;5071897;28;20037;-62
2023/07/19 12:11:41;;;;;;;19.67;10.45;;;;;;;;;;5071319;28;20063;-59
2023/07/19 12:14:09;;;;;;;17.98;11.52;;;;;;;;;;5071686;28;20488;-59
2023/07/19 12:16:36;;;;;;;21.08;10.82;;;;;;;;;;5072335;28;20048;-59
2023/07/19 12:19:02;;;;;;;19.58;9.70;;;;;;;;;;5054422;28;20036;-61
2023/07/19 12:21:29;;;;;;;22.02;11.00;;;;;;;;;;5046733;28;20032;-63
2023/07/19 12:23:56;;;;;;;22.60;10.50;;;;;;;;;;5068063;28;20112;-63
2023/07/19 12:26:23;;;;;;;20.98;11.30;;;;;;;;;;5061928;28;20055;-66
2023/07/19 12:28:49;;;;;;;23.83;11.50;;;;;;;;;;5043759;28;20037;-61
2023/07/19 12:31:16;;;;;;;19.75;10.93;;;;;;;;;;5060131;28;20066;-63
2023/07/19 12:33:43;;;;;;;21.92;11.18;;;;;;;;;;5061154;28;20043;-62
2023/07/19 12:36:10;;;;;;;19.92;10.88;;;;;;;;;;5062744;28;20036;-62
2023/07/19 12:38:36;;;;;;;22.58;10.93;;;;;;;;;;5061138;28;20082;-63
2023/07/19 12:41:03;;;;;;;20.48;11.00;;;;;;;;;;5037054;28;20043;-61
2023/07/19 12:43:30;;;;;;;18.00;10.00;;;;;;;;;;5059387;28;20036;-63
2023/07/19 12:45:57;;;;;;;21.42;11.07;;;;;;;;;;5027870;28;20090;-63
2023/07/19 12:48:25;;;;;;;20.55;10.48;;;;;;;;;;5034068;28;20497;-64
2023/07/19 12:50:52;;;;;;;19.25;10.20;;;;;;;;;;5059369;28;20089;-64
2023/07/19 12:53:18;;;;;;;19.15;10.63;;;;;;;;;;5033026;28;20037;-63
2023/07/19 12:55:46;;;;;;;23.13;11.57;;;;;;;;;;5061607;28;20071;-64
2023/07/19 12:58:13;;;;;;;20.05;11.23;;;;;;;;;;5058894;28;20047;-62
2023/07/19 13:00:41;;;;;;;23.35;11.15;;;;;;;;;;5058336;28;20648;-65
2023/07/19 13:03:09;;;;;;;26.58;11.18;;;;;;;;;;5057856;28;20067;-65
2023/07/19 13:05:35;;;;;;;23.95;12.13;;;;;;;;;;5059591;28;20225;-63
2023/07/19 13:08:02;;;;;;;25.38;11.82;;;;;;;;;;5033237;28;20037;-64
2023/07/19 13:10:29;;;;;;;25.02;11.98;;;;;;;;;;5060274;28;20040;-67
2023/07/19 13:12:55;;;;;;;24.90;12.35;;;;;;;;;;5058446;28;20029;-64
2023/07/19 13:15:22;;;;;;;24.55;12.35;;;;;;;;;;5060749;28;20043;-64
2023/07/19 13:17:48;;;;;;;28.50;13.55;;;;;;;;;;5060655;28;20083;-65
2023/07/19 13:20:15;;;;;;;28.15;14.55;;;;;;;;;;5061106;28;20042;-63
2023/07/19 13:22:42;;;;;;;31.20;13.98;;;;;;;;;;5057740;28;20045;-65
2023/07/19 13:25:09;;;;;;;25.33;13.40;;;;;;;;;;5062889;28;21760;-66
2023/07/19 13:27:36;;;;;;;25.23;13.52;;;;;;;;;;5033178;28;20043;-63
2023/07/19 13:30:03;;;;;;;23.13;12.77;;;;;;;;;;5036102;28;20036;-63
2023/07/19 13:32:32;;;;;;;24.13;12.63;;;;;;;;;;5044823;28;20036;-62
2023/07/19 13:34:59;;;;;;;22.08;12.52;;;;;;;;;;5033921;28;20032;-64
2023/07/19 13:37:28;;;;;;;27.25;12.10;;;;;;;;;;5045185;28;20120;-67
2023/07/19 13:39:54;;;;;;;22.90;11.88;;;;;;;;;;5044927;28;20159;-64
2023/07/19 13:42:21;;;;;;;23.05;12.55;;;;;;;;;;5061989;28;20044;-62
2023/07/19 13:44:48;;;;;;;25.20;13.20;;;;;;;;;;5060417;28;20094;-64
2023/07/19 13:47:34;;;;;;;25.90;13.07;;;;;;;;;;5028090;28;20432;-65
2023/07/19 13:50:00;;;;;;;23.98;13.82;;;;;;;;;;5012339;28;20108;-65
2023/07/19 13:52:27;;;;;;;24.88;13.13;;;;;;;;;;5030156;28;20044;-64
2023/07/19 13:54:54;;;;;;;23.02;14.10;;;;;;;;;;5028662;28;20449;-65
2023/07/19 13:57:20;;;;;;;25.98;13.63;;;;;;;;;;5028870;28;20040;-66
2023/07/19 13:59:47;;;;;;;23.90;13.88;;;;;;;;;;5027297;28;20056;-61
2023/07/19 14:02:14;;;;;;;22.38;13.30;;;;;;;;;;5027565;28;21192;-61
2023/07/19 14:04:42;;;;;;;24.85;13.98;;;;;;;;;;5027666;28;20061;-61
2023/07/19 14:07:08;;;;;;;28.88;14.18;;;;;;;;;;5028108;28;20045;-62
2023/07/19 14:09:35;;;;;;;22.45;13.40;;;;;;;;;;5010504;28;20742;-62
2023/07/19 14:12:03;;;;;;;25.38;14.07;;;;;;;;;;5017266;28;20041;-60
2023/07/19 14:14:30;;;;;;;24.60;13.05;;;;;;;;;;5031487;28;20032;-60
2023/07/19 14:16:56;;;;;;;22.77;14.10;;;;;;;;;;5011167;28;20043;-63
2023/07/19 14:19:23;;;;;;;22.10;13.15;;;;;;;;;;5011439;28;20152;-64
2023/07/19 14:21:50;;;;;;;22.92;13.65;;;;;;;;;;5012116;28;20030;-62
2023/07/19 14:24:16;;;;;;;26.38;14.20;;;;;;;;;;5018220;28;20115;-63
2023/07/19 14:26:43;;;;;;;25.20;14.18;;;;;;;;;;5065461;28;20451;-63
2023/07/19 14:29:29;;;;;;;27.20;13.38;;;;;;;;;;5020023;28;20117;-62